Rocky Point, New York
Current Conditions -  °F | °C
As of 2:56 PM on Wednesday 28 Jan 2015 (Local Time) from KHWV Reporting Station
Clear Clear  
Wind Chill: 14°   Ceiling: Unl
Heat Index: 27°   Visibility: 10mi
Dew Point:   Wind: 18mph
Humidity: 47%   Direction: 330°NNW
Pressure: 30.06"   Gusts: 25mph
Location:  40.95°N, 72.92°W
Report Text: KHWV 281956Z AUTO 33016G22KT 10SM CLR M03/M13 A3006 RMK AO2 SLP180 T10281128 TSNO
Loading
Personal Weather Stations






























Interactive Weather Map New forecast layout! Learn more

10-Day Weather Forecast

Advertisements
Track Severe Weather on mobile